sensor_id;sensor_type;location;lat;lon;timestamp;pressure;altitude;pressure_sealevel;temperature;humidity
27425;BME280;15244;49.088;11.886;2023-07-13T00:03:53;95697.88;;;23.83;52.68
27425;BME280;15244;49.088;11.886;2023-07-13T00:08:54;95693.06;;;23.84;53.02
27425;BME280;15244;49.088;11.886;2023-07-13T00:13:56;95697.69;;;23.87;53.01
27425;BME280;15244;49.088;11.886;2023-07-13T00:18:58;95711.03;;;23.83;52.96
27425;BME280;15244;49.088;11.886;2023-07-13T00:24:01;95716.94;;;23.75;52.64
27425;BME280;15244;49.088;11.886;2023-07-13T00:29:04;95699.16;;;23.73;52.94
27425;BME280;15244;49.088;11.886;2023-07-13T00:34:09;95706.25;;;23.74;53.03
27425;BME280;15244;49.088;11.886;2023-07-13T00:39:12;95692.97;;;23.69;52.71
27425;BME280;15244;49.088;11.886;2023-07-13T00:44:15;95700.69;;;23.65;53.09
27425;BME280;15244;49.088;11.886;2023-07-13T00:49:19;95685.25;;;23.64;52.96
27425;BME280;15244;49.088;11.886;2023-07-13T00:54:25;95681.69;;;23.63;53.01
27425;BME280;15244;49.088;11.886;2023-07-13T00:59:28;95688.50;;;23.62;53.55
27425;BME280;15244;49.088;11.886;2023-07-13T01:04:30;95686.66;;;23.59;53.24
27425;BME280;15244;49.088;11.886;2023-07-13T01:09:32;95693.16;;;23.56;53.43
27425;BME280;15244;49.088;11.886;2023-07-13T01:14:34;95692.56;;;23.52;53.51
27425;BME280;15244;49.088;11.886;2023-07-13T01:19:38;95699.25;;;23.45;53.34
27425;BME280;15244;49.088;11.886;2023-07-13T01:24:43;95701.59;;;23.38;53.63
27425;BME280;15244;49.088;11.886;2023-07-13T01:29:45;95689.53;;;23.31;53.75
27425;BME280;15244;49.088;11.886;2023-07-13T01:34:49;95680.75;;;23.33;53.96
27425;BME280;15244;49.088;11.886;2023-07-13T01:39:51;95675.47;;;23.35;53.96
27425;BME280;15244;49.088;11.886;2023-07-13T01:44:53;95667.72;;;23.39;53.72
27425;BME280;15244;49.088;11.886;2023-07-13T01:49:57;95672.06;;;23.40;53.71
27425;BME280;15244;49.088;11.886;2023-07-13T01:54:59;95667.25;;;23.41;54.03
27425;BME280;15244;49.088;11.886;2023-07-13T02:00:03;95667.25;;;23.41;53.44
27425;BME280;15244;49.088;11.886;2023-07-13T02:05:16;95676.88;;;23.40;53.25
27425;BME280;15244;49.088;11.886;2023-07-13T02:10:18;95666.34;;;23.34;53.58
27425;BME280;15244;49.088;11.886;2023-07-13T02:15:20;95658.63;;;23.29;53.44
27425;BME280;15244;49.088;11.886;2023-07-13T02:20:22;95661.91;;;23.28;53.70
27425;BME280;15244;49.088;11.886;2023-07-13T02:25:24;95668.69;;;23.27;53.32
27425;BME280;15244;49.088;11.886;2023-07-13T02:30:27;95673.97;;;23.25;53.14
27425;BME280;15244;49.088;11.886;2023-07-13T02:35:32;95679.38;;;23.19;53.03
27425;BME280;15244;49.088;11.886;2023-07-13T02:40:34;95681.88;;;23.17;53.04
27425;BME280;15244;49.088;11.886;2023-07-13T02:45:36;95681.56;;;23.15;53.17
27425;BME280;15244;49.088;11.886;2023-07-13T02:50:38;95692.38;;;23.13;53.05
27425;BME280;15244;49.088;11.886;2023-07-13T02:55:40;95689.28;;;23.11;52.78
27425;BME280;15244;49.088;11.886;2023-07-13T03:00:44;95693.47;;;23.06;52.98
27425;BME280;15244;49.088;11.886;2023-07-13T03:05:47;95688.09;;;23.03;53.06
27425;BME280;15244;49.088;11.886;2023-07-13T03:11:01;95695.34;;;23.00;52.78
27425;BME280;15244;49.088;11.886;2023-07-13T03:16:06;95700.59;;;22.98;52.90
27425;BME280;15244;49.088;11.886;2023-07-13T03:21:09;95703.84;;;22.97;52.83
27425;BME280;15244;49.088;11.886;2023-07-13T03:26:18;95714.31;;;22.92;52.74
27425;BME280;15244;49.088;11.886;2023-07-13T03:31:25;95715.25;;;22.89;52.75
27425;BME280;15244;49.088;11.886;2023-07-13T03:36:30;95723.16;;;22.82;52.76
27425;BME280;15244;49.088;11.886;2023-07-13T03:41:34;95738.44;;;22.77;52.72
27425;BME280;15244;49.088;11.886;2023-07-13T03:46:36;95745.69;;;22.75;52.68
27425;BME280;15244;49.088;11.886;2023-07-13T03:51:38;95745.22;;;22.67;52.55
27425;BME280;15244;49.088;11.886;2023-07-13T03:56:40;95744.75;;;22.59;52.59
27425;BME280;15244;49.088;11.886;2023-07-13T04:01:43;95757.56;;;22.57;52.35
27425;BME280;15244;49.088;11.886;2023-07-13T04:06:46;95752.94;;;22.54;52.31
27425;BME280;15244;49.088;11.886;2023-07-13T04:11:48;95753.84;;;22.50;52.27
27425;BME280;15244;49.088;11.886;2023-07-13T04:16:50;95757.09;;;22.49;52.08
27425;BME280;15244;49.088;11.886;2023-07-13T04:21:51;95747.19;;;22.48;52.38
27425;BME280;15244;49.088;11.886;2023-07-13T04:26:53;95752.31;;;22.49;52.17
27425;BME280;15244;49.088;11.886;2023-07-13T04:31:55;95759.56;;;22.47;51.81
27425;BME280;15244;49.088;11.886;2023-07-13T04:36:57;95758.03;;;22.46;52.14
27425;BME280;15244;49.088;11.886;2023-07-13T04:41:59;95770.84;;;22.43;51.82
27425;BME280;15244;49.088;11.886;2023-07-13T04:47:00;95760.50;;;22.44;51.72
27425;BME280;15244;49.088;11.886;2023-07-13T04:52:02;95766.38;;;22.46;51.69
27425;BME280;15244;49.088;11.886;2023-07-13T04:57:05;95771.91;;;22.46;51.50
27425;BME280;15244;49.088;11.886;2023-07-13T05:02:10;95781.47;;;22.45;51.42
27425;BME280;15244;49.088;11.886;2023-07-13T05:07:12;95784.56;;;22.47;51.25
27425;BME280;15244;49.088;11.886;2023-07-13T05:12:14;95802.47;;;22.46;51.26
27425;BME280;15244;49.088;11.886;2023-07-13T05:17:16;95800.59;;;22.43;50.98
27425;BME280;15244;49.088;11.886;2023-07-13T05:22:18;95797.22;;;22.39;50.82
27425;BME280;15244;49.088;11.886;2023-07-13T05:27:19;95798.91;;;22.36;50.71
27425;BME280;15244;49.088;11.886;2023-07-13T05:32:21;95802.13;;;22.35;50.89
27425;BME280;15244;49.088;11.886;2023-07-13T05:37:23;95816.16;;;22.31;50.67
27425;BME280;15244;49.088;11.886;2023-07-13T05:42:25;95823.09;;;22.26;50.86
27425;BME280;15244;49.088;11.886;2023-07-13T05:47:26;95821.84;;;22.27;50.59
27425;BME280;15244;49.088;11.886;2023-07-13T05:52:28;95819.41;;;22.29;50.78
27425;BME280;15244;49.088;11.886;2023-07-13T05:57:30;95819.56;;;22.35;50.34
27425;BME280;15244;49.088;11.886;2023-07-13T06:02:32;95822.06;;;22.42;50.02
27425;BME280;15244;49.088;11.886;2023-07-13T06:07:33;95810.16;;;22.42;49.46
27425;BME280;15244;49.088;11.886;2023-07-13T06:12:35;95814.81;;;22.45;49.23
27425;BME280;15244;49.088;11.886;2023-07-13T06:17:37;95822.09;;;22.52;49.37
27425;BME280;15244;49.088;11.886;2023-07-13T06:22:39;95827.03;;;22.57;48.95
27425;BME280;15244;49.088;11.886;2023-07-13T06:27:41;95822.72;;;22.65;48.86
27425;BME280;15244;49.088;11.886;2023-07-13T06:32:43;95838.63;;;22.73;48.58
27425;BME280;15244;49.088;11.886;2023-07-13T06:37:44;95844.03;;;22.77;48.51
27425;BME280;15244;49.088;11.886;2023-07-13T06:42:46;95834.47;;;22.78;48.31
27425;BME280;15244;49.088;11.886;2023-07-13T06:47:48;95828.75;;;22.82;48.35
27425;BME280;15244;49.088;11.886;2023-07-13T06:52:51;95845.44;;;22.82;47.75
27425;BME280;15244;49.088;11.886;2023-07-13T06:57:54;95848.69;;;22.89;47.36
27425;BME280;15244;49.088;11.886;2023-07-13T07:02:56;95852.41;;;22.96;47.30
27425;BME280;15244;49.088;11.886;2023-07-13T07:07:58;95857.53;;;22.97;47.33
27425;BME280;15244;49.088;11.886;2023-07-13T07:13:00;95863.25;;;23.03;46.61
27425;BME280;15244;49.088;11.886;2023-07-13T07:18:02;95875.91;;;23.13;46.78
27425;BME280;15244;49.088;11.886;2023-07-13T07:23:04;95881.47;;;23.13;45.45
27425;BME280;15244;49.088;11.886;2023-07-13T07:28:06;95882.88;;;23.08;45.69
27425;BME280;15244;49.088;11.886;2023-07-13T07:33:10;95887.50;;;23.11;45.75
27425;BME280;15244;49.088;11.886;2023-07-13T07:38:12;95902.19;;;23.21;45.68
27425;BME280;15244;49.088;11.886;2023-07-13T07:43:14;95898.78;;;23.26;45.43
27425;BME280;15244;49.088;11.886;2023-07-13T07:48:16;95899.56;;;23.36;45.36
27425;BME280;15244;49.088;11.886;2023-07-13T07:53:18;95917.97;;;23.43;44.75
27425;BME280;15244;49.088;11.886;2023-07-13T07:58:20;95918.59;;;23.38;44.11
27425;BME280;15244;49.088;11.886;2023-07-13T08:03:24;95909.13;;;23.44;44.49
27425;BME280;15244;49.088;11.886;2023-07-13T08:08:29;95908.53;;;23.58;44.68
27425;BME280;15244;49.088;11.886;2023-07-13T08:13:31;95917.47;;;23.72;44.21
27425;BME280;15244;49.088;11.886;2023-07-13T08:18:33;95924.13;;;23.74;43.71
27425;BME280;15244;49.088;11.886;2023-07-13T08:23:35;95924.00;;;23.78;43.83
27425;BME280;15244;49.088;11.886;2023-07-13T08:28:37;95933.88;;;23.79;43.19
27425;BME280;15244;49.088;11.886;2023-07-13T08:33:39;95935.28;;;23.74;42.99
27425;BME280;15244;49.088;11.886;2023-07-13T08:38:42;95931.72;;;23.74;42.68
27425;BME280;15244;49.088;11.886;2023-07-13T08:43:49;95949.19;;;23.74;42.15
27425;BME280;15244;49.088;11.886;2023-07-13T08:48:57;95941.16;;;23.76;42.33
27425;BME280;15244;49.088;11.886;2023-07-13T08:54:03;95941.16;;;23.76;40.75
27425;BME280;15244;49.088;11.886;2023-07-13T08:59:11;95947.50;;;23.77;39.80
27425;BME280;15244;49.088;11.886;2023-07-13T09:04:18;95951.84;;;23.78;40.05
27425;BME280;15244;49.088;11.886;2023-07-13T09:09:35;95954.75;;;23.74;39.54
27425;BME280;15244;49.088;11.886;2023-07-13T09:14:45;95953.06;;;23.77;39.44
27425;BME280;15244;49.088;11.886;2023-07-13T09:19:54;95956.47;;;23.81;39.86
27425;BME280;15244;49.088;11.886;2023-07-13T09:30:23;95958.63;;;23.95;39.07
27425;BME280;15244;49.088;11.886;2023-07-13T09:35:29;95965.41;;;24.04;37.90
27425;BME280;15244;49.088;11.886;2023-07-13T09:40:56;95951.75;;;24.15;38.52
27425;BME280;15244;49.088;11.886;2023-07-13T09:46:00;95952.81;;;24.27;37.91
27425;BME280;15244;49.088;11.886;2023-07-13T09:51:15;95947.22;;;24.36;37.54
27425;BME280;15244;49.088;11.886;2023-07-13T09:56:26;95952.00;;;24.44;36.43
27425;BME280;15244;49.088;11.886;2023-07-13T10:01:37;95957.84;;;24.56;36.74
27425;BME280;15244;49.088;11.886;2023-07-13T10:06:40;95961.81;;;24.73;37.16
27425;BME280;15244;49.088;11.886;2023-07-13T10:11:45;95965.63;;;24.85;36.79
27425;BME280;15244;49.088;11.886;2023-07-13T10:16:49;95971.75;;;24.98;36.85
27425;BME280;15244;49.088;11.886;2023-07-13T10:27:18;95964.03;;;24.93;35.51
27425;BME280;15244;49.088;11.886;2023-07-13T10:32:22;95975.03;;;24.97;35.25
27425;BME280;15244;49.088;11.886;2023-07-13T10:37:28;95971.09;;;25.03;35.13
27425;BME280;15244;49.088;11.886;2023-07-13T10:42:37;95976.69;;;25.03;33.79
27425;BME280;15244;49.088;11.886;2023-07-13T10:47:41;95977.75;;;25.06;34.31
27425;BME280;15244;49.088;11.886;2023-07-13T10:52:55;95964.22;;;25.14;34.25
27425;BME280;15244;49.088;11.886;2023-07-13T10:58:12;95958.63;;;25.23;34.09
27425;BME280;15244;49.088;11.886;2023-07-13T11:03:17;95966.81;;;25.26;33.00
27425;BME280;15244;49.088;11.886;2023-07-13T11:18:45;95968.59;;;25.39;32.57
27425;BME280;15244;49.088;11.886;2023-07-13T11:24:03;95948.50;;;25.49;31.99
27425;BME280;15244;49.088;11.886;2023-07-13T11:34:33;95964.16;;;25.71;31.43
27425;BME280;15244;49.088;11.886;2023-07-13T11:39:39;95950.59;;;25.79;31.65
27425;BME280;15244;49.088;11.886;2023-07-13T11:44:50;95954.41;;;25.90;31.27
27425;BME280;15244;49.088;11.886;2023-07-13T11:50:22;95953.63;;;26.05;31.65
27425;BME280;15244;49.088;11.886;2023-07-13T11:55:24;95948.34;;;26.22;31.53
27425;BME280;15244;49.088;11.886;2023-07-13T12:00:29;95953.94;;;26.22;30.37
27425;BME280;15244;49.088;11.886;2023-07-13T12:05:55;95951.06;;;26.31;30.62
27425;BME280;15244;49.088;11.886;2023-07-13T12:11:03;95947.38;;;26.40;30.03
27425;BME280;15244;49.088;11.886;2023-07-13T12:16:28;95970.69;;;26.51;28.91
27425;BME280;15244;49.088;11.886;2023-07-13T12:21:37;95939.47;;;26.53;28.31
27425;BME280;15244;49.088;11.886;2023-07-13T12:26:40;95942.47;;;26.64;29.22
27425;BME280;15244;49.088;11.886;2023-07-13T12:31:45;95938.69;;;26.67;29.19
27425;BME280;15244;49.088;11.886;2023-07-13T12:42:17;95936.03;;;26.78;28.72
27425;BME280;15244;49.088;11.886;2023-07-13T12:47:22;95927.25;;;26.86;28.93
27425;BME280;15244;49.088;11.886;2023-07-13T12:52:32;95929.38;;;26.91;28.10
27425;BME280;15244;49.088;11.886;2023-07-13T12:57:40;95904.81;;;27.00;28.41
27425;BME280;15244;49.088;11.886;2023-07-13T13:02:50;95902.38;;;27.08;27.68
27425;BME280;15244;49.088;11.886;2023-07-13T13:07:57;95911.44;;;27.18;28.30
27425;BME280;15244;49.088;11.886;2023-07-13T13:13:03;95903.88;;;27.24;26.86
27425;BME280;15244;49.088;11.886;2023-07-13T13:18:15;95901.38;;;27.26;27.38
27425;BME280;15244;49.088;11.886;2023-07-13T13:23:19;95894.06;;;27.34;27.57
27425;BME280;15244;49.088;11.886;2023-07-13T13:28:21;95889.53;;;27.37;26.55
27425;BME280;15244;49.088;11.886;2023-07-13T13:33:27;95907.03;;;27.32;25.98
27425;BME280;15244;49.088;11.886;2023-07-13T13:38:32;95898.84;;;27.28;26.67
27425;BME280;15244;49.088;11.886;2023-07-13T13:43:35;95898.28;;;27.24;26.19
27425;BME280;15244;49.088;11.886;2023-07-13T13:48:38;95892.44;;;27.22;26.63
27425;BME280;15244;49.088;11.886;2023-07-13T13:53:43;95886.47;;;27.35;26.71
27425;BME280;15244;49.088;11.886;2023-07-13T13:58:46;95901.22;;;27.35;26.53
27425;BME280;15244;49.088;11.886;2023-07-13T14:03:48;95889.88;;;27.44;27.06
27425;BME280;15244;49.088;11.886;2023-07-13T14:08:50;95892.56;;;27.59;26.29
27425;BME280;15244;49.088;11.886;2023-07-13T14:13:55;95892.72;;;27.71;26.12
27425;BME280;15244;49.088;11.886;2023-07-13T14:18:58;95892.91;;;27.67;25.73
27425;BME280;15244;49.088;11.886;2023-07-13T14:24:02;95889.97;;;27.76;26.45
27425;BME280;15244;49.088;11.886;2023-07-13T14:29:08;95889.03;;;27.85;26.27
27425;BME280;15244;49.088;11.886;2023-07-13T14:34:13;95891.25;;;28.01;25.94
27425;BME280;15244;49.088;11.886;2023-07-13T14:39:18;95895.03;;;27.98;25.25
27425;BME280;15244;49.088;11.886;2023-07-13T14:44:25;95890.16;;;27.93;25.58
27425;BME280;15244;49.088;11.886;2023-07-13T14:49:30;95889.97;;;28.02;25.22
27425;BME280;15244;49.088;11.886;2023-07-13T14:54:33;95900.53;;;28.13;25.40
27425;BME280;15244;49.088;11.886;2023-07-13T14:59:35;95890.38;;;28.16;24.77
27425;BME280;15244;49.088;11.886;2023-07-13T15:04:37;95904.13;;;28.19;25.05
27425;BME280;15244;49.088;11.886;2023-07-13T15:09:38;95889.13;;;28.22;24.62
27425;BME280;15244;49.088;11.886;2023-07-13T15:14:40;95886.59;;;28.24;24.29
27425;BME280;15244;49.088;11.886;2023-07-13T15:19:42;95882.03;;;28.27;24.01
27425;BME280;15244;49.088;11.886;2023-07-13T15:24:47;95924.03;;;28.21;23.93
27425;BME280;15244;49.088;11.886;2023-07-13T15:29:49;95890.38;;;28.16;23.82
27425;BME280;15244;49.088;11.886;2023-07-13T15:34:52;95897.19;;;28.09;24.24
27425;BME280;15244;49.088;11.886;2023-07-13T15:39:56;95901.75;;;28.06;24.03
27425;BME280;15244;49.088;11.886;2023-07-13T15:45:01;95904.25;;;28.04;23.82
27425;BME280;15244;49.088;11.886;2023-07-13T15:50:46;95893.06;;;28.04;24.64
27425;BME280;15244;49.088;11.886;2023-07-13T15:55:54;95902.72;;;28.03;24.08
27425;BME280;15244;49.088;11.886;2023-07-13T16:00:59;95901.28;;;28.14;24.59
27425;BME280;15244;49.088;11.886;2023-07-13T16:06:03;95916.72;;;28.29;24.42
27425;BME280;15244;49.088;11.886;2023-07-13T16:11:21;95913.19;;;28.35;24.03
27425;BME280;15244;49.088;11.886;2023-07-13T16:16:33;95917.66;;;28.47;23.87
27425;BME280;15244;49.088;11.886;2023-07-13T16:21:43;95914.97;;;28.64;23.85
27425;BME280;15244;49.088;11.886;2023-07-13T16:26:45;95909.16;;;28.73;23.83
27425;BME280;15244;49.088;11.886;2023-07-13T16:32:13;95916.34;;;28.80;24.04
27425;BME280;15244;49.088;11.886;2023-07-13T16:37:22;95913.75;;;28.76;23.49
27425;BME280;15244;49.088;11.886;2023-07-13T16:42:29;95925.28;;;28.84;22.65
27425;BME280;15244;49.088;11.886;2023-07-13T16:47:31;95935.53;;;28.87;23.17
27425;BME280;15244;49.088;11.886;2023-07-13T16:52:35;95928.38;;;28.86;22.96
27425;BME280;15244;49.088;11.886;2023-07-13T16:57:39;95941.16;;;28.92;23.53
27425;BME280;15244;49.088;11.886;2023-07-13T17:02:49;95928.38;;;28.91;23.24
27425;BME280;15244;49.088;11.886;2023-07-13T17:07:53;95933.78;;;28.95;23.15
27425;BME280;15244;49.088;11.886;2023-07-13T17:12:57;95936.03;;;28.91;23.12
27425;BME280;15244;49.088;11.886;2023-07-13T17:18:01;95940.66;;;28.94;23.15
27425;BME280;15244;49.088;11.886;2023-07-13T17:23:23;95936.63;;;29.01;23.18
27425;BME280;15244;49.088;11.886;2023-07-13T17:28:25;95945.31;;;29.03;22.88
27425;BME280;15244;49.088;11.886;2023-07-13T17:33:32;95954.56;;;29.09;23.14
27425;BME280;15244;49.088;11.886;2023-07-13T17:38:46;95953.06;;;29.19;22.63
27425;BME280;15244;49.088;11.886;2023-07-13T17:43:59;95950.31;;;29.25;23.03
27425;BME280;15244;49.088;11.886;2023-07-13T17:49:23;95942.94;;;29.33;22.79
27425;BME280;15244;49.088;11.886;2023-07-13T17:54:33;95946.28;;;29.37;22.70
27425;BME280;15244;49.088;11.886;2023-07-13T17:59:35;95954.50;;;29.46;22.63
27425;BME280;15244;49.088;11.886;2023-07-13T18:04:36;95947.66;;;29.58;22.46
27425;BME280;15244;49.088;11.886;2023-07-13T18:09:38;95958.19;;;29.69;22.51
27425;BME280;15244;49.088;11.886;2023-07-13T18:14:42;95961.53;;;29.79;22.13
27425;BME280;15244;49.088;11.886;2023-07-13T18:19:45;95968.19;;;29.81;22.61
27425;BME280;15244;49.088;11.886;2023-07-13T18:24:48;95962.56;;;29.81;22.33
27425;BME280;15244;49.088;11.886;2023-07-13T18:29:53;95978.88;;;29.72;22.44
27425;BME280;15244;49.088;11.886;2023-07-13T18:34:58;95967.78;;;29.51;22.30
27425;BME280;15244;49.088;11.886;2023-07-13T18:40:02;95972.56;;;29.34;22.87
27425;BME280;15244;49.088;11.886;2023-07-13T18:45:06;95975.28;;;29.17;23.36
27425;BME280;15244;49.088;11.886;2023-07-13T18:50:13;95979.22;;;28.99;23.59
27425;BME280;15244;49.088;11.886;2023-07-13T18:55:20;95977.56;;;28.81;23.88
27425;BME280;15244;49.088;11.886;2023-07-13T19:00:29;95974.84;;;28.61;24.29
27425;BME280;15244;49.088;11.886;2023-07-13T19:05:36;95987.88;;;28.38;24.36
27425;BME280;15244;49.088;11.886;2023-07-13T19:10:58;95996.06;;;28.15;24.47
27425;BME280;15244;49.088;11.886;2023-07-13T19:16:00;96001.25;;;27.96;24.57
27425;BME280;15244;49.088;11.886;2023-07-13T19:21:08;96013.78;;;27.80;25.25
27425;BME280;15244;49.088;11.886;2023-07-13T19:26:18;96009.22;;;27.62;25.41
27425;BME280;15244;49.088;11.886;2023-07-13T19:31:29;96012.00;;;27.42;25.51
27425;BME280;15244;49.088;11.886;2023-07-13T19:36:51;96030.63;;;27.25;25.22
27425;BME280;15244;49.088;11.886;2023-07-13T19:42:02;96045.31;;;27.05;25.55
27425;BME280;15244;49.088;11.886;2023-07-13T19:47:16;96038.75;;;26.93;26.32
27425;BME280;15244;49.088;11.886;2023-07-13T19:52:21;96048.97;;;26.81;26.62
27425;BME280;15244;49.088;11.886;2023-07-13T19:57:28;96061.44;;;26.65;26.76
27425;BME280;15244;49.088;11.886;2023-07-13T20:02:30;96063.91;;;26.48;27.03
27425;BME280;15244;49.088;11.886;2023-07-13T20:07:35;96068.25;;;26.34;26.68
27425;BME280;15244;49.088;11.886;2023-07-13T20:12:40;96072.28;;;26.19;26.63
27425;BME280;15244;49.088;11.886;2023-07-13T20:17:48;96084.47;;;26.06;26.78
27425;BME280;15244;49.088;11.886;2023-07-13T20:22:51;96080.22;;;25.96;27.00
27425;BME280;15244;49.088;11.886;2023-07-13T20:27:56;96098.09;;;25.89;27.13
27425;BME280;15244;49.088;11.886;2023-07-13T20:33:05;96095.16;;;25.84;27.22
27425;BME280;15244;49.088;11.886;2023-07-13T20:38:15;96109.31;;;25.80;27.20
27425;BME280;15244;49.088;11.886;2023-07-13T20:43:17;96110.75;;;25.76;27.74
27425;BME280;15244;49.088;11.886;2023-07-13T20:48:21;96107.34;;;25.71;28.65
27425;BME280;15244;49.088;11.886;2023-07-13T20:53:26;96119.34;;;25.63;28.26
27425;BME280;15244;49.088;11.886;2023-07-13T20:58:30;96118.63;;;25.53;28.78
27425;BME280;15244;49.088;11.886;2023-07-13T21:03:34;96119.91;;;25.43;28.70
27425;BME280;15244;49.088;11.886;2023-07-13T21:08:36;96117.91;;;25.34;28.41
27425;BME280;15244;49.088;11.886;2023-07-13T21:13:40;96120.13;;;25.30;28.84
27425;BME280;15244;49.088;11.886;2023-07-13T21:18:42;96127.88;;;25.26;28.66
27425;BME280;15244;49.088;11.886;2023-07-13T21:23:44;96119.69;;;25.22;28.67
27425;BME280;15244;49.088;11.886;2023-07-13T21:28:47;96122.19;;;25.20;28.80
27425;BME280;15244;49.088;11.886;2023-07-13T21:33:50;96132.56;;;25.20;28.60
27425;BME280;15244;49.088;11.886;2023-07-13T21:39:00;96126.69;;;25.18;28.67
27425;BME280;15244;49.088;11.886;2023-07-13T21:49:22;96139.53;;;25.15;29.74
27425;BME280;15244;49.088;11.886;2023-07-13T21:54:26;96144.78;;;25.13;30.30
27425;BME280;15244;49.088;11.886;2023-07-13T21:59:30;96138.59;;;25.09;30.54
27425;BME280;15244;49.088;11.886;2023-07-13T22:04:35;96141.25;;;25.03;30.85
27425;BME280;15244;49.088;11.886;2023-07-13T22:09:36;96146.69;;;24.98;30.47
27425;BME280;15244;49.088;11.886;2023-07-13T22:14:38;96154.94;;;24.92;31.02
27425;BME280;15244;49.088;11.886;2023-07-13T22:19:42;96151.22;;;24.86;30.74
27425;BME280;15244;49.088;11.886;2023-07-13T22:24:43;96145.69;;;24.77;30.19
27425;BME280;15244;49.088;11.886;2023-07-13T22:29:48;96148.59;;;24.73;30.21
27425;BME280;15244;49.088;11.886;2023-07-13T22:34:52;96145.69;;;24.68;30.21
27425;BME280;15244;49.088;11.886;2023-07-13T22:39:54;96145.06;;;24.63;29.96
27425;BME280;15244;49.088;11.886;2023-07-13T22:44:59;96141.19;;;24.61;29.92
27425;BME280;15244;49.088;11.886;2023-07-13T22:50:00;96138.56;;;24.57;29.95
27425;BME280;15244;49.088;11.886;2023-07-13T22:55:15;96141.66;;;24.50;29.62
27425;BME280;15244;49.088;11.886;2023-07-13T23:00:19;96140.41;;;24.42;29.63
27425;BME280;15244;49.088;11.886;2023-07-13T23:05:23;96141.81;;;24.37;29.68
27425;BME280;15244;49.088;11.886;2023-07-13T23:10:35;96131.28;;;24.32;29.78
27425;BME280;15244;49.088;11.886;2023-07-13T23:15:38;96140.88;;;24.31;29.64
27425;BME280;15244;49.088;11.886;2023-07-13T23:20:41;96131.28;;;24.32;29.93
27425;BME280;15244;49.088;11.886;2023-07-13T23:25:43;96128.97;;;24.31;29.98
27425;BME280;15244;49.088;11.886;2023-07-13T23:30:48;96130.81;;;24.25;30.17
27425;BME280;15244;49.088;11.886;2023-07-13T23:35:55;96131.91;;;24.27;30.02
27425;BME280;15244;49.088;11.886;2023-07-13T23:41:00;96127.84;;;24.28;32.20
27425;BME280;15244;49.088;11.886;2023-07-13T23:46:01;96131.75;;;24.31;33.56
27425;BME280;15244;49.088;11.886;2023-07-13T23:51:04;96135.00;;;24.29;33.55
27425;BME280;15244;49.088;11.886;2023-07-13T23:56:19;96137.63;;;24.23;33.89
